createdAt,value
2018-02-15T00:00:00.378Z,0.00
2018-02-15T00:01:00.355Z,0.00
2018-02-15T00:02:00.326Z,0.00
2018-02-15T00:03:00.306Z,0.00
2018-02-15T00:04:00.280Z,0.00
2018-02-15T00:05:00.260Z,0.00
2018-02-15T00:06:00.232Z,0.00
2018-02-15T00:07:00.210Z,0.00
2018-02-15T00:08:00.186Z,0.00
2018-02-15T00:09:00.167Z,0.00
2018-02-15T00:10:00.136Z,0.00
2018-02-15T00:11:00.113Z,0.00
2018-02-15T00:12:00.100Z,0.00
2018-02-15T00:13:00.067Z,0.00
2018-02-15T00:14:00.043Z,0.00
2018-02-15T00:15:00.030Z,0.00
2018-02-15T00:15:59.996Z,0.00
2018-02-15T00:16:59.970Z,0.00
2018-02-15T00:17:59.946Z,0.00
2018-02-15T00:18:59.927Z,0.00
2018-02-15T00:19:59.900Z,0.00
2018-02-15T00:20:59.876Z,0.00
2018-02-15T00:21:59.864Z,0.00
2018-02-15T00:22:59.830Z,0.00
2018-02-15T00:23:59.804Z,0.00
2018-02-15T00:24:59.780Z,0.00
2018-02-15T00:25:59.755Z,0.00
2018-02-15T00:26:59.733Z,0.00
2018-02-15T00:27:59.710Z,0.00
2018-02-15T00:28:59.718Z,0.00
2018-02-15T00:29:59.663Z,0.00
2018-02-15T00:30:59.636Z,0.00
2018-02-15T00:31:59.613Z,0.00
2018-02-15T00:32:59.601Z,0.00
2018-02-15T00:33:59.568Z,0.00
2018-02-15T00:34:59.549Z,0.00
2018-02-15T00:35:59.531Z,0.00
2018-02-15T00:36:59.499Z,0.00
2018-02-15T00:37:59.478Z,0.00
2018-02-15T00:38:59.447Z,0.00
2018-02-15T00:39:59.423Z,0.00
2018-02-15T00:40:59.399Z,0.00
2018-02-15T00:41:59.380Z,0.00
2018-02-15T00:42:59.352Z,0.00
2018-02-15T00:43:59.329Z,0.00
2018-02-15T00:44:59.307Z,0.00
2018-02-15T00:45:59.281Z,0.00
2018-02-15T00:46:59.265Z,0.00
2018-02-15T00:47:59.240Z,0.00
2018-02-15T00:48:59.211Z,0.00
2018-02-15T00:49:59.189Z,0.00
2018-02-15T00:50:59.163Z,0.00
2018-02-15T00:51:59.145Z,0.00
2018-02-15T00:52:59.116Z,0.00
2018-02-15T00:53:59.096Z,0.00
2018-02-15T00:54:59.068Z,0.00
2018-02-15T00:55:59.046Z,0.00
2018-02-15T00:56:59.026Z,0.00
2018-02-15T00:57:58.999Z,0.00
2018-02-15T00:58:58.976Z,0.00
2018-02-15T00:59:58.953Z,0.00
2018-02-15T01:00:58.928Z,0.00
2018-02-15T01:01:58.906Z,0.00
2018-02-15T01:02:58.885Z,0.00
2018-02-15T01:03:58.857Z,0.00
2018-02-15T01:04:58.839Z,0.00
2018-02-15T01:05:58.808Z,0.00
2018-02-15T01:06:58.787Z,0.00
2018-02-15T01:07:58.761Z,0.00
2018-02-15T01:08:58.737Z,0.00
2018-02-15T01:09:58.720Z,0.00
2018-02-15T01:10:58.691Z,0.00
2018-02-15T01:11:58.670Z,0.00
2018-02-15T01:12:58.643Z,0.00
2018-02-15T01:13:58.619Z,0.00
2018-02-15T01:14:58.599Z,0.00
2018-02-15T01:15:58.576Z,0.00
2018-02-15T01:16:58.550Z,0.00
2018-02-15T01:17:58.526Z,0.00
2018-02-15T01:18:58.501Z,0.00
2018-02-15T01:19:58.476Z,0.00
2018-02-15T01:20:58.454Z,0.00
2018-02-15T01:21:58.430Z,0.00
2018-02-15T01:22:58.404Z,0.00
2018-02-15T01:23:58.382Z,0.00
2018-02-15T01:24:58.362Z,0.00
2018-02-15T01:25:58.334Z,0.00
2018-02-15T01:26:58.311Z,0.00
2018-02-15T01:27:58.288Z,0.00
2018-02-15T01:28:58.266Z,0.00
2018-02-15T01:29:58.243Z,0.00
2018-02-15T01:30:58.216Z,0.00
2018-02-15T01:31:58.197Z,0.00
2018-02-15T01:32:58.170Z,0.00
2018-02-15T01:33:58.152Z,0.00
2018-02-15T01:34:58.125Z,0.00
2018-02-15T01:35:58.100Z,0.00
2018-02-15T01:36:58.078Z,0.00
2018-02-15T01:37:58.056Z,0.00
2018-02-15T01:38:58.027Z,0.00
2018-02-15T01:39:58.007Z,0.00
2018-02-15T01:40:57.987Z,0.00
2018-02-15T01:41:57.959Z,0.00
2018-02-15T01:42:57.934Z,0.00
2018-02-15T01:43:57.910Z,0.00
2018-02-15T01:44:57.890Z,0.00
2018-02-15T01:45:57.863Z,0.00
2018-02-15T01:46:57.843Z,0.00
2018-02-15T01:47:57.814Z,0.00
2018-02-15T01:48:57.794Z,0.00
2018-02-15T01:49:57.773Z,0.00
2018-02-15T01:50:57.746Z,0.00
2018-02-15T01:51:57.724Z,0.00
2018-02-15T01:52:57.696Z,0.00
2018-02-15T01:53:57.676Z,0.00
2018-02-15T01:54:57.658Z,0.00
2018-02-15T01:55:57.626Z,0.00
2018-02-15T01:56:57.604Z,0.00
2018-02-15T01:57:57.580Z,0.00
2018-02-15T01:58:57.564Z,0.00
2018-02-15T01:59:57.532Z,0.00
2018-02-15T02:00:57.508Z,0.00
2018-02-15T02:01:57.485Z,0.00
2018-02-15T02:02:57.467Z,0.00
2018-02-15T02:03:57.438Z,0.00
2018-02-15T02:04:57.414Z,0.00
2018-02-15T02:05:57.397Z,0.00
2018-02-15T02:06:57.370Z,0.00
2018-02-15T02:07:57.343Z,0.00
2018-02-15T02:08:57.329Z,0.00
2018-02-15T02:09:57.296Z,0.00
2018-02-15T02:10:57.273Z,0.00
2018-02-15T02:11:57.254Z,0.00
2018-02-15T02:12:57.227Z,0.00
2018-02-15T02:13:57.207Z,0.00
2018-02-15T02:14:57.184Z,0.00
2018-02-15T02:15:57.156Z,0.00
2018-02-15T02:16:57.136Z,0.00
2018-02-15T02:17:57.111Z,0.00
2018-02-15T02:18:57.087Z,0.00
2018-02-15T02:19:57.064Z,0.00
2018-02-15T02:20:57.040Z,0.00
2018-02-15T02:21:57.019Z,0.00
2018-02-15T02:22:56.992Z,0.00
2018-02-15T02:23:56.969Z,0.00
2018-02-15T02:24:56.951Z,0.00
2018-02-15T02:25:56.925Z,0.00
2018-02-15T02:26:56.900Z,0.00
2018-02-15T02:27:56.875Z,0.00
2018-02-15T02:28:56.852Z,0.00
2018-02-15T02:29:56.837Z,0.00
2018-02-15T02:30:56.804Z,0.00
2018-02-15T02:31:56.782Z,0.00
2018-02-15T02:32:56.762Z,0.00
2018-02-15T02:33:56.739Z,0.00
2018-02-15T02:34:56.714Z,0.00
2018-02-15T02:35:56.686Z,0.00
2018-02-15T02:36:56.666Z,0.00
2018-02-15T02:37:56.644Z,0.00
2018-02-15T02:38:56.619Z,0.00
2018-02-15T02:39:56.596Z,0.00
2018-02-15T02:40:56.571Z,0.00
2018-02-15T02:41:56.547Z,0.00
2018-02-15T02:42:56.525Z,0.00
2018-02-15T02:43:56.500Z,0.00
2018-02-15T02:44:56.476Z,0.00
2018-02-15T02:45:56.460Z,0.00
2018-02-15T02:46:56.437Z,0.00
2018-02-15T02:47:56.408Z,0.00
2018-02-15T02:48:56.386Z,0.00
2018-02-15T02:49:56.365Z,0.00
2018-02-15T02:50:56.336Z,0.00
2018-02-15T02:51:56.316Z,0.00
2018-02-15T02:52:56.294Z,0.00
2018-02-15T02:53:56.266Z,0.00
2018-02-15T02:54:56.250Z,0.00
2018-02-15T02:55:56.227Z,0.00
2018-02-15T02:56:56.195Z,0.00
2018-02-15T02:57:56.174Z,0.00
2018-02-15T02:58:56.155Z,0.00
2018-02-15T02:59:56.125Z,0.00
2018-02-15T03:00:56.109Z,0.00
2018-02-15T03:01:56.080Z,0.00
2018-02-15T03:02:56.060Z,0.00
2018-02-15T03:03:56.035Z,0.00
2018-02-15T03:04:56.009Z,0.00
2018-02-15T03:05:55.986Z,0.00
2018-02-15T03:06:55.966Z,0.00
2018-02-15T03:07:55.949Z,0.00
2018-02-15T03:08:55.918Z,0.00
2018-02-15T03:09:55.893Z,0.00
2018-02-15T03:10:55.872Z,0.00
2018-02-15T03:11:55.848Z,0.00
2018-02-15T03:12:55.832Z,0.00
2018-02-15T03:13:55.803Z,0.00
2018-02-15T03:14:55.777Z,0.00
2018-02-15T03:15:55.754Z,0.00
2018-02-15T03:16:55.730Z,0.00
2018-02-15T03:17:55.714Z,0.00
2018-02-15T03:18:55.686Z,0.00
2018-02-15T03:19:55.665Z,0.00
2018-02-15T03:20:55.637Z,0.00
2018-02-15T03:21:55.615Z,0.00
2018-02-15T03:22:55.595Z,0.00
2018-02-15T03:23:55.572Z,0.00
2018-02-15T03:24:55.547Z,0.00
2018-02-15T03:25:55.527Z,0.00
2018-02-15T03:26:55.501Z,0.00
2018-02-15T03:27:55.477Z,0.00
2018-02-15T03:28:55.452Z,0.00
2018-02-15T03:29:55.426Z,0.00
2018-02-15T03:30:55.404Z,0.00
2018-02-15T03:31:55.380Z,0.00
2018-02-15T03:32:55.361Z,0.00
2018-02-15T03:33:55.353Z,0.00
2018-02-15T03:34:55.314Z,0.00
2018-02-15T03:35:55.296Z,0.00
2018-02-15T03:36:55.266Z,0.00
2018-02-15T03:37:55.245Z,0.00
2018-02-15T03:38:55.225Z,0.00
2018-02-15T03:39:55.195Z,0.00
2018-02-15T03:40:55.172Z,0.00
2018-02-15T03:41:55.155Z,0.00
2018-02-15T03:42:55.127Z,0.00
2018-02-15T03:43:55.102Z,0.00
2018-02-15T03:44:55.080Z,0.00
2018-02-15T03:45:55.077Z,0.00
2018-02-15T03:46:55.032Z,0.00
2018-02-15T03:47:55.010Z,0.00
2018-02-15T03:48:54.991Z,0.00
2018-02-15T03:49:54.966Z,0.00
2018-02-15T03:50:54.942Z,0.00
2018-02-15T03:51:54.914Z,0.00
2018-02-15T03:52:54.893Z,0.00
2018-02-15T03:53:54.871Z,0.00
2018-02-15T03:54:54.845Z,0.00
2018-02-15T03:55:54.821Z,0.00
2018-02-15T03:56:54.801Z,0.00
2018-02-15T03:57:54.782Z,0.00
2018-02-15T03:58:54.752Z,0.00
2018-02-15T03:59:54.730Z,0.00
2018-02-15T04:00:54.715Z,0.00
2018-02-15T04:01:54.684Z,0.00
2018-02-15T04:02:54.668Z,0.00
2018-02-15T04:03:54.641Z,0.00
2018-02-15T04:04:54.615Z,0.00
2018-02-15T04:05:54.595Z,0.00
2018-02-15T04:06:54.570Z,0.00
2018-02-15T04:07:54.545Z,0.00
2018-02-15T04:08:54.526Z,0.00
2018-02-15T04:09:54.496Z,0.00
2018-02-15T04:10:54.475Z,0.00
2018-02-15T04:11:54.451Z,0.00
2018-02-15T04:12:54.427Z,0.00
2018-02-15T04:13:54.413Z,0.00
2018-02-15T04:14:54.387Z,0.00
2018-02-15T04:15:54.363Z,0.00
2018-02-15T04:16:54.336Z,0.00
2018-02-15T04:17:54.313Z,0.00
2018-02-15T04:18:54.289Z,0.00
2018-02-15T04:19:54.266Z,0.00
2018-02-15T04:20:54.244Z,0.00
2018-02-15T04:21:54.221Z,0.00
2018-02-15T04:22:54.196Z,0.00
2018-02-15T04:23:54.173Z,0.00
2018-02-15T04:24:54.156Z,0.00
2018-02-15T04:25:54.129Z,0.00
2018-02-15T04:26:54.105Z,0.00
2018-02-15T04:27:54.083Z,0.00
2018-02-15T04:28:54.056Z,0.00
2018-02-15T04:29:54.037Z,0.00
2018-02-15T04:30:54.015Z,0.00
2018-02-15T04:31:53.985Z,0.00
2018-02-15T04:32:53.966Z,0.00
2018-02-15T04:33:53.939Z,0.00
2018-02-15T04:34:53.923Z,0.00
2018-02-15T04:35:53.895Z,0.00
2018-02-15T04:36:53.873Z,0.00
2018-02-15T04:37:53.853Z,0.00
2018-02-15T04:38:53.828Z,0.00
2018-02-15T04:39:53.803Z,0.00
2018-02-15T04:40:53.781Z,0.00
2018-02-15T04:41:53.761Z,0.00
2018-02-15T04:42:53.736Z,0.00
2018-02-15T04:43:53.713Z,0.00
2018-02-15T04:44:53.687Z,0.00
2018-02-15T04:45:53.663Z,0.00
2018-02-15T04:46:53.642Z,0.00
2018-02-15T04:47:53.617Z,0.00
2018-02-15T04:48:53.594Z,0.00
2018-02-15T04:49:53.575Z,0.00
2018-02-15T04:50:53.550Z,0.00
2018-02-15T04:51:53.538Z,0.00
2018-02-15T04:52:53.500Z,0.00
2018-02-15T04:53:53.483Z,0.00
2018-02-15T04:54:53.456Z,0.00
2018-02-15T04:55:53.434Z,0.00
2018-02-15T04:56:53.410Z,0.00
2018-02-15T04:57:53.386Z,0.00
2018-02-15T04:58:53.366Z,0.00
2018-02-15T04:59:53.335Z,0.00
2018-02-15T05:00:53.315Z,0.00
2018-02-15T05:01:53.292Z,0.00
2018-02-15T05:02:53.267Z,0.00
2018-02-15T05:03:53.245Z,0.00
2018-02-15T05:04:53.220Z,0.00
2018-02-15T05:05:53.196Z,0.00
2018-02-15T05:06:53.172Z,0.00
2018-02-15T05:07:53.152Z,0.00
2018-02-15T05:08:53.126Z,0.00
2018-02-15T05:09:53.106Z,0.00
2018-02-15T05:10:53.082Z,0.00
2018-02-15T05:11:53.053Z,0.00
2018-02-15T05:12:53.029Z,0.00
2018-02-15T05:13:53.013Z,0.00
2018-02-15T05:14:52.985Z,0.00
2018-02-15T05:15:52.962Z,0.00
2018-02-15T05:16:52.934Z,0.00
2018-02-15T05:17:52.911Z,0.00
2018-02-15T05:18:52.896Z,0.00
2018-02-15T05:19:52.866Z,0.00
2018-02-15T05:20:52.841Z,0.00
2018-02-15T05:21:52.820Z,0.00
2018-02-15T05:22:52.796Z,0.00
2018-02-15T05:23:52.777Z,0.00
2018-02-15T05:24:52.745Z,0.00
2018-02-15T05:25:52.746Z,0.00
2018-02-15T05:26:52.703Z,0.00
2018-02-15T05:27:52.671Z,0.00
2018-02-15T05:28:52.652Z,0.00
2018-02-15T05:29:52.633Z,0.00
2018-02-15T05:30:52.606Z,0.00
2018-02-15T05:31:52.581Z,0.00
2018-02-15T05:32:52.556Z,0.00
2018-02-15T05:33:52.537Z,0.00
2018-02-15T05:34:52.509Z,0.00
2018-02-15T05:35:52.485Z,0.00
2018-02-15T05:36:52.466Z,0.00
2018-02-15T05:37:52.436Z,0.00
2018-02-15T05:38:52.416Z,0.00
2018-02-15T05:39:52.389Z,0.00
2018-02-15T05:40:52.367Z,0.00
2018-02-15T05:41:52.346Z,0.00
2018-02-15T05:42:52.324Z,0.00
2018-02-15T05:43:52.296Z,0.00
2018-02-15T05:44:52.278Z,0.00
2018-02-15T05:45:52.245Z,0.00
2018-02-15T05:46:52.225Z,0.00
2018-02-15T05:47:52.203Z,0.00
2018-02-15T05:48:52.184Z,0.00
2018-02-15T05:49:52.153Z,0.00
2018-02-15T05:50:52.126Z,0.00
2018-02-15T05:51:52.100Z,0.00
2018-02-15T05:52:52.082Z,0.00
2018-02-15T05:53:52.062Z,0.00
2018-02-15T05:54:52.033Z,0.00
2018-02-15T05:55:52.011Z,0.00
2018-02-15T05:56:51.983Z,0.00
2018-02-15T05:57:51.964Z,0.00
2018-02-15T05:58:51.936Z,0.00
2018-02-15T05:59:51.916Z,0.00
2018-02-15T06:00:51.887Z,0.00
2018-02-15T06:01:51.866Z,0.00
2018-02-15T06:02:51.846Z,0.00
2018-02-15T06:03:51.818Z,0.00
2018-02-15T06:04:51.792Z,0.00
2018-02-15T06:05:51.774Z,0.00
2018-02-15T06:06:51.747Z,0.00
2018-02-15T06:07:51.730Z,0.00
2018-02-15T06:08:51.695Z,0.00
2018-02-15T06:09:51.672Z,0.00
2018-02-15T06:10:51.647Z,0.00
2018-02-15T06:11:51.626Z,0.00
2018-02-15T06:12:51.599Z,0.00
2018-02-15T06:13:51.583Z,0.00
2018-02-15T06:14:51.556Z,0.00
2018-02-15T06:15:51.528Z,0.00
2018-02-15T06:16:51.511Z,0.00
2018-02-15T06:17:51.480Z,0.00
2018-02-15T06:18:51.456Z,0.00
2018-02-15T06:19:51.435Z,0.00
2018-02-15T06:20:51.413Z,0.00
2018-02-15T06:21:51.401Z,0.00
2018-02-15T06:22:51.365Z,0.00
2018-02-15T06:23:51.336Z,0.00
2018-02-15T06:24:51.333Z,0.00
2018-02-15T06:25:51.289Z,0.00
2018-02-15T06:26:51.266Z,0.00
2018-02-15T06:27:51.244Z,0.00
2018-02-15T06:28:51.226Z,4.00
2018-02-15T06:29:51.199Z,4.00
2018-02-15T06:30:51.182Z,4.00
2018-02-15T06:31:51.146Z,0.00
2018-02-15T06:32:51.124Z,0.00
2018-02-15T06:33:51.099Z,4.00
2018-02-15T06:34:51.076Z,4.00
2018-02-15T06:35:51.050Z,4.00
2018-02-15T06:36:51.028Z,4.00
2018-02-15T06:37:51.009Z,4.00
2018-02-15T06:38:50.983Z,4.00
2018-02-15T06:39:50.957Z,4.00
2018-02-15T06:40:50.937Z,8.00
2018-02-15T06:41:50.916Z,4.00
2018-02-15T06:42:50.888Z,8.00
2018-02-15T06:43:50.863Z,8.00
2018-02-15T06:44:50.836Z,12.00
2018-02-15T06:45:50.814Z,8.00
2018-02-15T06:46:50.788Z,12.00
2018-02-15T06:47:50.766Z,12.00
2018-02-15T06:48:50.743Z,12.00
2018-02-15T06:49:50.717Z,12.00
2018-02-15T06:50:50.694Z,16.00
2018-02-15T06:51:50.678Z,16.00
2018-02-15T06:52:50.647Z,16.00
2018-02-15T06:53:50.626Z,20.00
2018-02-15T06:54:50.599Z,20.00
2018-02-15T06:55:50.578Z,20.00
2018-02-15T06:56:50.550Z,20.00
2018-02-15T06:57:50.526Z,24.00
2018-02-15T06:58:50.503Z,24.00
2018-02-15T06:59:50.476Z,24.00
2018-02-15T07:00:50.455Z,32.00
2018-02-15T07:01:50.435Z,32.00
2018-02-15T07:02:50.406Z,32.00
2018-02-15T07:03:50.392Z,36.00
2018-02-15T07:04:50.358Z,36.00
2018-02-15T07:05:50.335Z,36.00
2018-02-15T07:06:50.313Z,40.00
2018-02-15T07:07:50.285Z,44.00
2018-02-15T07:08:50.263Z,48.00
2018-02-15T07:09:50.236Z,52.00
2018-02-15T07:10:50.219Z,56.00
2018-02-15T07:11:50.196Z,60.00
2018-02-15T07:12:50.165Z,60.00
2018-02-15T07:13:50.146Z,64.00
2018-02-15T07:14:50.136Z,64.00
2018-02-15T07:15:50.096Z,68.00
2018-02-15T07:16:50.072Z,76.00
2018-02-15T07:17:50.045Z,80.00
2018-02-15T07:18:50.024Z,88.00
2018-02-15T07:19:50.005Z,88.00
2018-02-15T07:20:49.976Z,88.00
2018-02-15T07:21:49.955Z,92.00
2018-02-15T07:22:49.925Z,88.00
2018-02-15T07:23:49.906Z,92.00
2018-02-15T07:24:49.882Z,92.00
2018-02-15T07:25:49.855Z,96.00
2018-02-15T07:26:49.839Z,96.00
2018-02-15T07:27:49.805Z,100.00
2018-02-15T07:28:49.787Z,100.00
2018-02-15T07:29:49.764Z,104.00
2018-02-15T07:30:49.734Z,108.00
2018-02-15T07:31:49.713Z,112.00
2018-02-15T07:32:49.685Z,128.00
2018-02-15T07:33:49.664Z,136.00
2018-02-15T07:34:49.645Z,136.00
2018-02-15T07:35:49.613Z,148.00
2018-02-15T07:36:49.599Z,140.00
2018-02-15T07:37:49.566Z,156.00
2018-02-15T07:38:49.546Z,144.00
2018-02-15T07:39:49.526Z,152.00
2018-02-15T07:40:49.500Z,152.00
2018-02-15T07:41:49.470Z,160.00
2018-02-15T07:42:49.454Z,160.00
2018-02-15T07:43:49.427Z,160.00
2018-02-15T07:44:49.406Z,164.00
2018-02-15T07:45:49.380Z,200.00
2018-02-15T07:46:49.369Z,208.00
2018-02-15T07:47:49.332Z,212.00
2018-02-15T07:48:49.307Z,216.00
2018-02-15T07:49:49.282Z,228.00
2018-02-15T07:50:49.264Z,224.00
2018-02-15T07:51:49.236Z,236.00
2018-02-15T07:52:49.213Z,236.00
2018-02-15T07:53:49.192Z,244.00
2018-02-15T07:54:49.166Z,244.00
2018-02-15T07:55:49.145Z,236.00
2018-02-15T07:56:49.124Z,236.00
2018-02-15T07:57:49.099Z,240.00
2018-02-15T07:58:49.082Z,252.00
2018-02-15T07:59:49.049Z,256.00
2018-02-15T08:00:49.030Z,256.00
2018-02-15T08:01:49.006Z,248.00
2018-02-15T08:02:49.020Z,252.00
2018-02-15T08:03:48.952Z,256.00
2018-02-15T08:04:48.926Z,268.00
2018-02-15T08:05:48.913Z,276.00
2018-02-15T08:06:48.879Z,280.00
2018-02-15T08:07:48.856Z,284.00
2018-02-15T08:08:48.835Z,284.00
2018-02-15T08:09:48.812Z,276.00
2018-02-15T08:10:48.795Z,276.00
2018-02-15T08:11:48.764Z,272.00
2018-02-15T08:12:48.735Z,276.00
2018-02-15T08:13:48.717Z,280.00
2018-02-15T08:14:48.693Z,288.00
2018-02-15T08:15:48.675Z,292.00
2018-02-15T08:16:48.642Z,304.00
2018-02-15T08:17:48.621Z,308.00
2018-02-15T08:18:48.597Z,312.00
2018-02-15T08:19:48.575Z,320.00
2018-02-15T08:20:48.551Z,312.00
2018-02-15T08:21:48.525Z,300.00
2018-02-15T08:22:48.505Z,292.00
2018-02-15T08:23:48.477Z,296.00
2018-02-15T08:24:48.459Z,292.00
2018-02-15T08:25:48.431Z,304.00
2018-02-15T08:26:48.413Z,308.00
2018-02-15T08:27:48.383Z,304.00
2018-02-15T08:28:48.359Z,308.00
2018-02-15T08:29:48.336Z,312.00
2018-02-15T08:30:48.316Z,312.00
2018-02-15T08:31:48.284Z,316.00
2018-02-15T08:32:48.263Z,312.00
2018-02-15T08:33:48.240Z,312.00
2018-02-15T08:34:48.216Z,308.00
2018-02-15T08:35:48.197Z,300.00
2018-02-15T08:36:48.171Z,304.00
2018-02-15T08:37:48.147Z,312.00
2018-02-15T08:38:48.127Z,320.00
2018-02-15T08:39:48.097Z,332.00
2018-02-15T08:40:48.073Z,348.00
2018-02-15T08:41:48.056Z,364.00
2018-02-15T08:42:48.026Z,392.00
2018-02-15T08:43:48.003Z,404.00
2018-02-15T08:44:47.980Z,424.00
2018-02-15T08:45:47.959Z,428.00
2018-02-15T08:46:47.933Z,424.00
2018-02-15T08:47:47.910Z,428.00
2018-02-15T08:48:47.887Z,444.00
2018-02-15T08:49:47.865Z,456.00
2018-02-15T08:50:47.842Z,456.00
2018-02-15T08:51:47.817Z,456.00
2018-02-15T08:52:47.795Z,444.00
2018-02-15T08:53:47.765Z,440.00
2018-02-15T08:54:47.744Z,440.00
2018-02-15T08:55:47.726Z,428.00
2018-02-15T08:56:47.696Z,424.00
2018-02-15T08:57:47.678Z,424.00
2018-02-15T08:58:47.669Z,416.00
2018-02-15T08:59:47.622Z,400.00
2018-02-15T09:00:47.605Z,384.00
2018-02-15T09:01:47.576Z,376.00
2018-02-15T09:02:47.558Z,356.00
2018-02-15T09:03:47.533Z,360.00
2018-02-15T09:04:47.508Z,352.00
2018-02-15T09:05:47.487Z,360.00
2018-02-15T09:06:47.464Z,368.00
2018-02-15T09:07:47.438Z,376.00
2018-02-15T09:08:47.415Z,380.00
2018-02-15T09:09:47.390Z,372.00
2018-02-15T09:10:47.367Z,380.00
2018-02-15T09:11:47.347Z,364.00
2018-02-15T09:12:47.317Z,368.00
2018-02-15T09:13:47.298Z,368.00
2018-02-15T09:14:47.271Z,372.00
2018-02-15T09:15:47.255Z,384.00
2018-02-15T09:16:47.227Z,376.00
2018-02-15T09:17:47.199Z,384.00
2018-02-15T09:18:47.179Z,372.00
2018-02-15T09:19:47.151Z,356.00
2018-02-15T09:20:47.131Z,340.00
2018-02-15T09:21:47.104Z,328.00
2018-02-15T09:22:47.089Z,328.00
2018-02-15T09:23:47.060Z,336.00
2018-02-15T09:24:47.038Z,352.00
2018-02-15T09:25:47.013Z,352.00
2018-02-15T09:26:46.994Z,364.00
2018-02-15T09:27:46.966Z,372.00
2018-02-15T09:28:46.942Z,364.00
2018-02-15T09:29:46.927Z,356.00
2018-02-15T09:30:46.896Z,348.00
2018-02-15T09:31:46.874Z,344.00
2018-02-15T09:32:46.852Z,360.00
2018-02-15T09:33:46.833Z,352.00
2018-02-15T09:34:46.802Z,352.00
2018-02-15T09:35:46.778Z,360.00
2018-02-15T09:36:46.755Z,344.00
2018-02-15T09:37:46.730Z,356.00
2018-02-15T09:38:46.716Z,372.00
2018-02-15T09:39:46.687Z,392.00
2018-02-15T09:40:46.663Z,404.00
2018-02-15T09:41:46.641Z,404.00
2018-02-15T09:42:46.613Z,396.00
2018-02-15T09:43:46.588Z,412.00
2018-02-15T09:44:46.563Z,412.00
2018-02-15T09:45:46.591Z,428.00
2018-02-15T09:46:46.525Z,460.00
2018-02-15T09:47:46.504Z,444.00
2018-02-15T09:48:46.473Z,472.00
2018-02-15T09:49:46.457Z,472.00
2018-02-15T09:50:46.430Z,484.00
2018-02-15T09:51:46.406Z,448.00
2018-02-15T09:52:46.382Z,456.00
2018-02-15T09:53:46.356Z,452.00
2018-02-15T09:54:46.336Z,452.00
2018-02-15T09:55:46.311Z,428.00
2018-02-15T09:56:46.288Z,408.00
2018-02-15T09:57:46.285Z,392.00
2018-02-15T09:58:46.240Z,392.00
2018-02-15T09:59:46.223Z,404.00
2018-02-15T10:00:46.196Z,416.00
2018-02-15T10:01:46.171Z,396.00
2018-02-15T10:02:46.148Z,432.00
2018-02-15T10:03:46.122Z,420.00
2018-02-15T10:04:46.099Z,416.00
2018-02-15T10:05:46.087Z,448.00
2018-02-15T10:06:46.058Z,476.00
2018-02-15T10:07:46.039Z,524.00
2018-02-15T10:08:46.015Z,584.00
2018-02-15T10:09:45.982Z,580.00
2018-02-15T10:10:45.960Z,552.00
2018-02-15T10:11:45.937Z,548.00
2018-02-15T10:12:45.918Z,448.00
2018-02-15T10:13:45.895Z,380.00
2018-02-15T10:14:45.865Z,328.00
2018-02-15T10:15:45.843Z,348.00
2018-02-15T10:16:45.818Z,384.00
2018-02-15T10:17:45.797Z,396.00
2018-02-15T10:18:45.772Z,416.00
2018-02-15T10:19:45.745Z,424.00
2018-02-15T10:20:45.722Z,404.00
2018-02-15T10:21:45.698Z,368.00
2018-02-15T10:22:45.689Z,372.00
2018-02-15T10:23:45.653Z,352.00
2018-02-15T10:24:45.631Z,360.00
2018-02-15T10:25:45.609Z,364.00
2018-02-15T10:26:45.583Z,376.00
2018-02-15T10:27:45.561Z,344.00
2018-02-15T10:28:45.536Z,352.00
2018-02-15T10:29:45.518Z,376.00
2018-02-15T10:30:45.495Z,348.00
2018-02-15T10:31:45.469Z,348.00
2018-02-15T10:32:45.443Z,356.00
2018-02-15T10:33:45.424Z,356.00
2018-02-15T10:34:45.397Z,356.00
2018-02-15T10:35:45.372Z,368.00
2018-02-15T10:36:45.353Z,372.00
2018-02-15T10:37:45.327Z,384.00
2018-02-15T10:38:45.305Z,368.00
2018-02-15T10:39:45.278Z,340.00
2018-02-15T10:40:45.254Z,336.00
2018-02-15T10:41:45.233Z,336.00
2018-02-15T10:42:45.211Z,324.00
2018-02-15T10:43:45.187Z,324.00
2018-02-15T10:44:45.166Z,316.00
2018-02-15T10:45:45.149Z,324.00
2018-02-15T10:46:45.121Z,328.00
2018-02-15T10:47:45.103Z,332.00
2018-02-15T10:48:45.072Z,348.00
2018-02-15T10:49:45.048Z,356.00
2018-02-15T10:50:45.023Z,360.00
2018-02-15T10:51:45.008Z,352.00
2018-02-15T10:52:44.975Z,348.00
2018-02-15T10:53:44.957Z,324.00
2018-02-15T10:54:44.930Z,328.00
2018-02-15T10:55:44.904Z,336.00
2018-02-15T10:56:44.897Z,324.00
2018-02-15T10:57:44.867Z,308.00
2018-02-15T10:58:44.835Z,312.00
2018-02-15T10:59:44.816Z,320.00
2018-02-15T11:00:44.798Z,316.00
2018-02-15T11:01:44.776Z,312.00
2018-02-15T11:02:44.749Z,304.00
2018-02-15T11:03:44.729Z,276.00
2018-02-15T11:04:44.697Z,264.00
2018-02-15T11:05:44.675Z,268.00
2018-02-15T11:06:44.665Z,272.00
2018-02-15T11:07:44.626Z,264.00
2018-02-15T11:08:44.606Z,236.00
2018-02-15T11:09:44.589Z,252.00
2018-02-15T11:10:44.570Z,264.00
2018-02-15T11:11:44.537Z,252.00
2018-02-15T11:12:44.514Z,256.00
2018-02-15T11:13:44.491Z,248.00
2018-02-15T11:14:44.470Z,244.00
2018-02-15T11:15:44.479Z,264.00
2018-02-15T11:16:44.420Z,248.00
2018-02-15T11:17:44.406Z,236.00
2018-02-15T11:18:44.376Z,220.00
2018-02-15T11:19:44.349Z,224.00
2018-02-15T11:20:44.336Z,224.00
2018-02-15T11:21:44.313Z,232.00
2018-02-15T11:22:44.290Z,228.00
2018-02-15T11:23:44.256Z,196.00
2018-02-15T11:24:44.235Z,164.00
2018-02-15T11:25:44.213Z,160.00
2018-02-15T11:26:44.196Z,168.00
2018-02-15T11:27:44.166Z,168.00
2018-02-15T11:28:44.147Z,188.00
2018-02-15T11:29:44.125Z,208.00
2018-02-15T11:30:44.097Z,224.00
2018-02-15T11:31:44.076Z,200.00
2018-02-15T11:32:44.055Z,188.00
2018-02-15T11:33:44.028Z,196.00
2018-02-15T11:34:44.010Z,176.00
2018-02-15T11:35:43.985Z,172.00
2018-02-15T11:36:43.960Z,144.00
2018-02-15T11:37:43.943Z,164.00
2018-02-15T11:38:43.912Z,180.00
2018-02-15T11:39:43.886Z,164.00
2018-02-15T11:40:43.866Z,160.00
2018-02-15T11:41:43.845Z,156.00
2018-02-15T11:42:43.825Z,160.00
2018-02-15T11:43:43.796Z,168.00
2018-02-15T11:44:43.786Z,180.00
2018-02-15T11:45:43.772Z,172.00
2018-02-15T11:46:43.731Z,156.00
2018-02-15T11:47:43.707Z,156.00
2018-02-15T11:48:43.686Z,152.00
2018-02-15T11:49:43.668Z,152.00
2018-02-15T11:50:43.634Z,156.00
2018-02-15T11:51:43.608Z,164.00
2018-02-15T11:52:43.589Z,164.00
2018-02-15T11:53:43.566Z,160.00
2018-02-15T11:54:43.545Z,152.00
2018-02-15T11:55:43.518Z,132.00
2018-02-15T11:56:43.496Z,104.00
2018-02-15T11:57:43.484Z,104.00
2018-02-15T11:58:43.451Z,108.00
2018-02-15T11:59:43.425Z,116.00
2018-02-15T12:00:43.403Z,128.00
2018-02-15T12:01:43.399Z,140.00
2018-02-15T12:02:43.356Z,152.00
2018-02-15T12:03:43.332Z,148.00
2018-02-15T12:04:43.312Z,180.00
2018-02-15T12:05:43.287Z,172.00
2018-02-15T12:06:43.266Z,176.00
2018-02-15T12:07:43.246Z,180.00
2018-02-15T12:08:43.227Z,176.00
2018-02-15T12:09:43.196Z,176.00
2018-02-15T12:10:43.173Z,208.00
2018-02-15T12:11:43.146Z,216.00
2018-02-15T12:12:43.128Z,208.00
2018-02-15T12:13:43.110Z,196.00
2018-02-15T12:14:43.081Z,168.00
2018-02-15T12:15:43.054Z,164.00
2018-02-15T12:16:43.030Z,204.00
2018-02-15T12:17:43.015Z,228.00
2018-02-15T12:18:42.997Z,220.00
2018-02-15T12:19:42.972Z,224.00
2018-02-15T12:20:42.942Z,244.00
2018-02-15T12:21:42.916Z,244.00
2018-02-15T12:22:42.896Z,248.00
2018-02-15T12:23:42.875Z,240.00
2018-02-15T12:24:42.848Z,244.00
2018-02-15T12:25:42.825Z,280.00
2018-02-15T12:26:42.804Z,292.00
2018-02-15T12:27:42.782Z,268.00
2018-02-15T12:28:42.756Z,248.00
2018-02-15T12:29:42.745Z,228.00
2018-02-15T12:30:42.711Z,240.00
2018-02-15T12:31:42.688Z,212.00
2018-02-15T12:32:42.666Z,264.00
2018-02-15T12:33:42.640Z,280.00
2018-02-15T12:34:42.622Z,296.00
2018-02-15T12:35:42.594Z,252.00
2018-02-15T12:36:42.580Z,232.00
2018-02-15T12:37:42.561Z,264.00
2018-02-15T12:38:42.529Z,272.00
2018-02-15T12:39:42.506Z,300.00
2018-02-15T12:40:42.482Z,300.00
2018-02-15T12:41:42.460Z,308.00
2018-02-15T12:42:42.451Z,344.00
2018-02-15T12:43:42.417Z,416.00
2018-02-15T12:44:42.388Z,372.00
2018-02-15T12:45:42.369Z,280.00
2018-02-15T12:46:42.343Z,272.00
2018-02-15T12:47:42.325Z,240.00
2018-02-15T12:48:42.299Z,228.00
2018-02-15T12:49:42.279Z,236.00
2018-02-15T12:50:42.261Z,232.00
2018-02-15T12:51:42.238Z,224.00
2018-02-15T12:52:42.206Z,248.00
2018-02-15T12:53:42.187Z,240.00
2018-02-15T12:54:42.169Z,232.00